createdAt,value
2018-07-26T00:00:05.405Z,17.22
2018-07-26T00:01:05.424Z,17.27
2018-07-26T00:02:05.411Z,17.18
2018-07-26T00:03:05.551Z,17.24
2018-07-26T00:04:05.457Z,17.24
2018-07-26T00:05:05.469Z,17.15
2018-07-26T00:06:06.092Z,17.15
2018-07-26T00:07:05.496Z,17.24
2018-07-26T00:08:05.658Z,17.13
2018-07-26T00:09:05.926Z,17.17
2018-07-26T00:10:05.538Z,17.12
2018-07-26T00:11:05.553Z,17.12
2018-07-26T00:12:05.627Z,17.09
2018-07-26T00:13:05.991Z,17.13
2018-07-26T00:14:05.655Z,17.18
2018-07-26T00:15:05.666Z,17.20
2018-07-26T00:16:05.685Z,17.21
2018-07-26T00:17:05.695Z,17.15
2018-07-26T00:18:05.851Z,17.22
2018-07-26T00:19:05.719Z,17.27
2018-07-26T00:20:05.716Z,17.17
2018-07-26T00:21:05.740Z,17.24
2018-07-26T00:22:05.694Z,17.20
2018-07-26T00:23:05.801Z,17.24
2018-07-26T00:24:05.690Z,17.22
2018-07-26T00:25:05.725Z,17.21
2018-07-26T00:26:05.742Z,17.12
2018-07-26T00:27:05.756Z,17.22
2018-07-26T00:28:05.917Z,17.17
2018-07-26T00:29:05.779Z,17.12
2018-07-26T00:30:05.792Z,17.17
2018-07-26T00:31:06.013Z,17.13
2018-07-26T00:32:05.820Z,17.21
2018-07-26T00:33:05.981Z,17.18
2018-07-26T00:34:05.844Z,17.15
2018-07-26T00:35:05.858Z,17.18
2018-07-26T00:36:05.868Z,17.30
2018-07-26T00:37:05.871Z,17.28
2018-07-26T00:38:06.150Z,17.22
2018-07-26T00:39:05.911Z,17.24
2018-07-26T00:40:05.916Z,17.21
2018-07-26T00:41:05.933Z,17.35
2018-07-26T00:42:05.941Z,17.35
2018-07-26T00:43:06.108Z,17.24
2018-07-26T00:44:05.970Z,17.25
2018-07-26T00:45:05.981Z,17.22
2018-07-26T00:46:05.999Z,17.24
2018-07-26T00:47:06.006Z,17.22
2018-07-26T00:48:06.269Z,17.35
2018-07-26T00:49:06.039Z,17.30
2018-07-26T00:50:06.053Z,17.28
2018-07-26T00:51:06.059Z,17.35
2018-07-26T00:52:06.064Z,17.35
2018-07-26T00:53:06.224Z,17.39
2018-07-26T00:54:06.104Z,17.36
2018-07-26T00:55:06.503Z,17.40
2018-07-26T00:56:06.134Z,17.40
2018-07-26T00:57:06.139Z,17.28
2018-07-26T00:58:06.303Z,17.20
2018-07-26T00:59:06.147Z,17.36
2018-07-26T01:00:06.180Z,17.25
2018-07-26T01:01:06.187Z,17.25
2018-07-26T01:02:06.184Z,17.24
2018-07-26T01:03:06.365Z,17.22
2018-07-26T01:04:06.232Z,17.25
2018-07-26T01:05:06.237Z,17.22
2018-07-26T01:06:06.260Z,17.22
2018-07-26T01:07:06.271Z,17.24
2018-07-26T01:08:06.286Z,17.21
2018-07-26T01:09:06.448Z,17.20
2018-07-26T01:10:06.303Z,17.22
2018-07-26T01:11:06.320Z,17.24
2018-07-26T01:12:06.334Z,17.25
2018-07-26T01:13:06.344Z,17.27
2018-07-26T01:14:06.511Z,17.22
2018-07-26T01:15:06.365Z,17.27
2018-07-26T01:16:06.364Z,17.27
2018-07-26T01:17:06.401Z,17.24
2018-07-26T01:18:06.411Z,17.21
2018-07-26T01:19:06.572Z,17.22
2018-07-26T01:20:06.438Z,17.21
2018-07-26T01:21:06.444Z,17.31
2018-07-26T01:22:06.459Z,17.22
2018-07-26T01:23:06.479Z,17.24
2018-07-26T01:24:06.641Z,17.22
2018-07-26T01:25:06.505Z,17.27
2018-07-26T01:26:06.516Z,17.22
2018-07-26T01:27:06.506Z,17.21
2018-07-26T01:28:06.533Z,17.24
2018-07-26T01:29:06.799Z,17.27
2018-07-26T01:30:06.563Z,17.30
2018-07-26T01:31:06.553Z,17.36
2018-07-26T01:32:06.590Z,17.31
2018-07-26T01:33:06.603Z,17.39
2018-07-26T01:34:06.765Z,17.32
2018-07-26T01:35:06.625Z,17.32
2018-07-26T01:36:06.629Z,17.35
2018-07-26T01:37:06.655Z,17.30
2018-07-26T01:38:06.660Z,17.32
2018-07-26T01:39:06.925Z,17.32
2018-07-26T01:40:06.687Z,17.32
2018-07-26T01:41:06.707Z,17.35
2018-07-26T01:42:06.717Z,17.42
2018-07-26T01:43:06.729Z,17.36
2018-07-26T01:44:06.997Z,17.30
2018-07-26T01:45:06.762Z,17.38
2018-07-26T01:46:06.768Z,17.22
2018-07-26T01:47:06.759Z,17.39
2018-07-26T01:48:06.791Z,17.35
2018-07-26T01:49:06.958Z,17.28
2018-07-26T01:50:06.824Z,17.31
2018-07-26T01:51:06.827Z,17.31
2018-07-26T01:52:06.842Z,17.30
2018-07-26T01:53:06.856Z,17.31
2018-07-26T01:54:07.005Z,17.30
2018-07-26T01:55:06.866Z,17.36
2018-07-26T01:56:06.893Z,17.31
2018-07-26T01:57:06.912Z,17.38
2018-07-26T01:58:06.919Z,17.40
2018-07-26T01:59:07.083Z,17.47
2018-07-26T02:00:06.952Z,17.49
2018-07-26T02:01:06.959Z,17.46
2018-07-26T02:02:06.973Z,17.47
2018-07-26T02:03:06.993Z,17.45
2018-07-26T02:04:07.126Z,17.46
2018-07-26T02:05:06.998Z,17.47
2018-07-26T02:06:07.005Z,17.55
2018-07-26T02:07:07.040Z,17.55
2018-07-26T02:08:07.051Z,17.55
2018-07-26T02:09:07.214Z,17.50
2018-07-26T02:10:07.086Z,17.63
2018-07-26T02:11:07.093Z,17.58
2018-07-26T02:12:07.098Z,17.71
2018-07-26T02:13:07.117Z,17.52
2018-07-26T02:14:07.289Z,17.62
2018-07-26T02:15:07.142Z,17.57
2018-07-26T02:16:07.150Z,17.65
2018-07-26T02:17:07.170Z,17.58
2018-07-26T02:18:07.176Z,17.62
2018-07-26T02:19:07.340Z,17.68
2018-07-26T02:20:07.210Z,17.66
2018-07-26T02:21:07.222Z,17.73
2018-07-26T02:22:07.233Z,17.80
2018-07-26T02:23:07.241Z,17.83
2018-07-26T02:24:07.243Z,17.86
2018-07-26T02:25:07.408Z,17.84
2018-07-26T02:26:07.289Z,17.88
2018-07-26T02:27:07.297Z,17.88
2018-07-26T02:28:07.307Z,17.88
2018-07-26T02:29:07.321Z,17.88
2018-07-26T02:30:07.341Z,17.84
2018-07-26T02:31:07.654Z,17.87
2018-07-26T02:32:07.400Z,17.87
2018-07-26T02:33:07.377Z,17.90
2018-07-26T02:34:07.398Z,17.83
2018-07-26T02:35:07.400Z,17.88
2018-07-26T02:36:07.566Z,17.81
2018-07-26T02:37:07.431Z,17.83
2018-07-26T02:38:07.440Z,17.90
2018-07-26T02:39:07.441Z,17.86
2018-07-26T02:40:07.473Z,17.90
2018-07-26T02:41:07.731Z,17.83
2018-07-26T02:42:07.494Z,17.88
2018-07-26T02:43:07.503Z,17.92
2018-07-26T02:44:07.519Z,17.92
2018-07-26T02:45:07.537Z,17.92
2018-07-26T02:46:07.696Z,17.90
2018-07-26T02:47:07.564Z,17.87
2018-07-26T02:48:07.579Z,17.90
2018-07-26T02:49:07.589Z,17.88
2018-07-26T02:50:07.577Z,17.87
2018-07-26T02:51:07.758Z,17.83
2018-07-26T02:52:07.607Z,17.69
2018-07-26T02:53:07.638Z,17.81
2018-07-26T02:54:07.648Z,17.77
2018-07-26T02:55:07.669Z,17.63
2018-07-26T02:56:07.829Z,17.69
2018-07-26T02:57:07.685Z,17.58
2018-07-26T02:58:07.711Z,17.62
2018-07-26T02:59:07.717Z,17.55
2018-07-26T03:00:07.734Z,17.57
2018-07-26T03:01:07.873Z,17.55
2018-07-26T03:02:07.755Z,17.54
2018-07-26T03:03:07.752Z,17.52
2018-07-26T03:04:07.785Z,17.47
2018-07-26T03:05:07.788Z,17.49
2018-07-26T03:06:07.957Z,17.39
2018-07-26T03:07:07.826Z,17.50
2018-07-26T03:08:07.815Z,17.40
2018-07-26T03:09:07.844Z,17.45
2018-07-26T03:10:07.937Z,17.36
2018-07-26T03:11:08.018Z,17.46
2018-07-26T03:12:07.885Z,17.42
2018-07-26T03:13:07.897Z,17.35
2018-07-26T03:14:07.909Z,17.32
2018-07-26T03:15:07.921Z,17.31
2018-07-26T03:16:08.038Z,17.31
2018-07-26T03:17:07.929Z,17.30
2018-07-26T03:18:07.959Z,17.35
2018-07-26T03:19:07.973Z,17.32
2018-07-26T03:20:07.989Z,17.31
2018-07-26T03:21:08.160Z,17.31
2018-07-26T03:22:08.011Z,17.31
2018-07-26T03:23:08.022Z,17.31
2018-07-26T03:24:08.037Z,17.28
2018-07-26T03:25:08.061Z,17.28
2018-07-26T03:26:08.197Z,17.38
2018-07-26T03:27:08.078Z,17.39
2018-07-26T03:28:08.093Z,17.36
2018-07-26T03:29:08.100Z,17.27
2018-07-26T03:30:08.109Z,17.21
2018-07-26T03:31:08.274Z,17.24
2018-07-26T03:32:08.125Z,17.17
2018-07-26T03:33:08.151Z,17.27
2018-07-26T03:34:08.143Z,17.25
2018-07-26T03:35:08.158Z,17.22
2018-07-26T03:36:08.318Z,17.21
2018-07-26T03:37:08.208Z,17.18
2018-07-26T03:38:08.217Z,17.15
2018-07-26T03:39:08.225Z,17.10
2018-07-26T03:40:08.254Z,17.17
2018-07-26T03:41:08.252Z,17.13
2018-07-26T03:42:08.415Z,17.12
2018-07-26T03:43:08.261Z,17.06
2018-07-26T03:44:08.312Z,17.07
2018-07-26T03:45:08.301Z,17.02
2018-07-26T03:46:08.297Z,17.03
2018-07-26T03:47:08.579Z,16.95
2018-07-26T03:48:08.343Z,17.07
2018-07-26T03:49:08.349Z,16.91
2018-07-26T03:50:08.365Z,16.99
2018-07-26T03:51:08.401Z,16.99
2018-07-26T03:52:08.536Z,16.91
2018-07-26T03:53:08.401Z,16.91
2018-07-26T03:54:08.414Z,16.97
2018-07-26T03:55:08.427Z,16.91
2018-07-26T03:56:08.444Z,16.90
2018-07-26T03:57:08.605Z,16.90
2018-07-26T03:58:08.467Z,16.91
2018-07-26T03:59:08.477Z,16.85
2018-07-26T04:00:08.470Z,16.94
2018-07-26T04:01:08.502Z,16.82
2018-07-26T04:02:08.670Z,16.87
2018-07-26T04:03:08.529Z,16.82
2018-07-26T04:04:08.523Z,16.88
2018-07-26T04:05:08.531Z,16.77
2018-07-26T04:06:08.563Z,16.82
2018-07-26T04:07:08.728Z,16.84
2018-07-26T04:08:08.589Z,16.69
2018-07-26T04:09:08.600Z,16.74
2018-07-26T04:10:08.600Z,16.73
2018-07-26T04:11:08.624Z,16.67
2018-07-26T04:12:08.787Z,16.80
2018-07-26T04:13:08.629Z,16.72
2018-07-26T04:14:08.727Z,16.73
2018-07-26T04:15:08.677Z,16.67
2018-07-26T04:16:08.684Z,16.63
2018-07-26T04:17:08.850Z,16.72
2018-07-26T04:18:08.714Z,16.74
2018-07-26T04:19:08.724Z,16.69
2018-07-26T04:20:08.811Z,16.74
2018-07-26T04:21:08.749Z,16.80
2018-07-26T04:22:08.915Z,16.77
2018-07-26T04:23:08.775Z,16.74
2018-07-26T04:24:08.790Z,16.67
2018-07-26T04:25:08.800Z,16.67
2018-07-26T04:26:08.857Z,16.74
2018-07-26T04:27:08.981Z,16.74
2018-07-26T04:28:08.816Z,16.74
2018-07-26T04:29:08.851Z,16.74
2018-07-26T04:30:08.864Z,16.73
2018-07-26T04:31:08.874Z,16.72
2018-07-26T04:32:09.153Z,16.72
2018-07-26T04:33:08.901Z,16.76
2018-07-26T04:34:08.918Z,16.69
2018-07-26T04:35:08.921Z,16.76
2018-07-26T04:36:08.938Z,16.70
2018-07-26T04:37:09.090Z,16.76
2018-07-26T04:38:08.969Z,16.69
2018-07-26T04:39:08.975Z,16.73
2018-07-26T04:40:08.971Z,16.77
2018-07-26T04:41:09.000Z,16.85
2018-07-26T04:42:09.142Z,16.85
2018-07-26T04:43:09.024Z,16.82
2018-07-26T04:44:09.034Z,16.85
2018-07-26T04:45:09.027Z,16.88
2018-07-26T04:46:09.081Z,16.90
2018-07-26T04:47:09.222Z,16.87
2018-07-26T04:48:09.088Z,16.87
2018-07-26T04:49:09.099Z,16.95
2018-07-26T04:50:09.112Z,16.97
2018-07-26T04:51:09.121Z,16.99
2018-07-26T04:52:09.385Z,16.94
2018-07-26T04:53:09.131Z,16.88
2018-07-26T04:54:09.161Z,16.94
2018-07-26T04:55:09.153Z,16.94
2018-07-26T04:56:09.181Z,17.07
2018-07-26T04:57:09.205Z,17.03
2018-07-26T04:58:09.362Z,17.02
2018-07-26T04:59:09.229Z,17.05
2018-07-26T05:00:09.772Z,17.05
2018-07-26T05:01:09.228Z,17.05
2018-07-26T05:02:09.258Z,17.00
2018-07-26T05:03:09.273Z,17.03
2018-07-26T05:04:09.438Z,17.05
2018-07-26T05:05:09.306Z,16.99
2018-07-26T05:06:09.315Z,16.95
2018-07-26T05:07:09.320Z,16.91
2018-07-26T05:08:09.423Z,16.94
2018-07-26T05:09:09.499Z,17.00
2018-07-26T05:10:09.369Z,17.05
2018-07-26T05:11:09.372Z,17.05
2018-07-26T05:12:09.387Z,17.03
2018-07-26T05:13:09.400Z,17.02
2018-07-26T05:14:09.565Z,16.95
2018-07-26T05:15:09.423Z,17.03
2018-07-26T05:16:09.438Z,17.06
2018-07-26T05:17:09.448Z,17.09
2018-07-26T05:18:09.460Z,17.07
2018-07-26T05:19:09.631Z,16.94
2018-07-26T05:20:09.495Z,16.95
2018-07-26T05:21:09.500Z,16.91
2018-07-26T05:22:09.515Z,16.94
2018-07-26T05:23:09.528Z,17.00
2018-07-26T05:24:09.694Z,16.99
2018-07-26T05:25:09.556Z,16.88
2018-07-26T05:26:09.570Z,16.84
2018-07-26T05:27:09.577Z,16.92
2018-07-26T05:28:09.584Z,16.88
2018-07-26T05:29:09.735Z,16.80
2018-07-26T05:30:09.615Z,16.77
2018-07-26T05:31:09.633Z,16.70
2018-07-26T05:32:09.639Z,16.76
2018-07-26T05:33:09.647Z,16.74
2018-07-26T05:34:09.817Z,16.76
2018-07-26T05:35:09.680Z,16.74
2018-07-26T05:36:09.673Z,16.80
2018-07-26T05:37:09.707Z,16.72
2018-07-26T05:38:09.721Z,16.88
2018-07-26T05:39:09.878Z,16.85
2018-07-26T05:40:09.744Z,16.81
2018-07-26T05:41:09.734Z,16.84
2018-07-26T05:42:09.770Z,16.87
2018-07-26T05:43:09.831Z,16.84
2018-07-26T05:44:09.938Z,16.88
2018-07-26T05:45:09.791Z,16.80
2018-07-26T05:46:09.812Z,16.90
2018-07-26T05:47:09.830Z,16.88
2018-07-26T05:48:09.841Z,16.87
2018-07-26T05:49:10.004Z,16.77
2018-07-26T05:50:09.863Z,16.76
2018-07-26T05:51:09.881Z,16.74
2018-07-26T05:52:09.907Z,16.73
2018-07-26T05:53:09.903Z,16.74
2018-07-26T05:54:10.070Z,16.70
2018-07-26T05:55:09.925Z,16.70
2018-07-26T05:56:09.934Z,16.73
2018-07-26T05:57:09.949Z,16.72
2018-07-26T05:58:09.964Z,16.76
2018-07-26T05:59:10.131Z,16.74
2018-07-26T06:00:10.036Z,16.70
2018-07-26T06:01:09.983Z,16.70
2018-07-26T06:02:10.013Z,16.72
2018-07-26T06:03:10.007Z,16.74
2018-07-26T06:04:10.170Z,16.73
2018-07-26T06:05:10.046Z,16.70
2018-07-26T06:06:10.064Z,16.74
2018-07-26T06:07:10.074Z,16.76
2018-07-26T06:08:10.087Z,16.76
2018-07-26T06:09:10.250Z,16.76
2018-07-26T06:10:10.122Z,16.70
2018-07-26T06:11:10.125Z,16.72
2018-07-26T06:12:10.144Z,16.74
2018-07-26T06:13:10.149Z,16.70
2018-07-26T06:14:10.315Z,16.74
2018-07-26T06:15:10.175Z,16.81
2018-07-26T06:16:10.189Z,16.81
2018-07-26T06:17:10.233Z,16.76
2018-07-26T06:18:10.244Z,16.85
2018-07-26T06:19:10.224Z,16.88
2018-07-26T06:20:10.389Z,16.87
2018-07-26T06:21:10.253Z,16.90
2018-07-26T06:22:10.244Z,16.99
2018-07-26T06:23:10.276Z,16.94
2018-07-26T06:24:10.270Z,16.90
2018-07-26T06:25:10.452Z,16.91
2018-07-26T06:26:10.310Z,16.97
2018-07-26T06:27:10.330Z,16.95
2018-07-26T06:28:10.354Z,17.00
2018-07-26T06:29:10.346Z,16.94
2018-07-26T06:30:10.597Z,17.02
2018-07-26T06:31:10.372Z,16.99
2018-07-26T06:32:10.389Z,16.95
2018-07-26T06:33:10.380Z,16.91
2018-07-26T06:34:10.412Z,16.95
2018-07-26T06:35:10.578Z,16.99
2018-07-26T06:36:10.438Z,16.94
2018-07-26T06:37:10.445Z,16.88
2018-07-26T06:38:10.461Z,16.92
2018-07-26T06:39:10.476Z,16.88
2018-07-26T06:40:10.629Z,16.80
2018-07-26T06:41:10.497Z,16.73
2018-07-26T06:42:10.514Z,16.85
2018-07-26T06:43:10.528Z,16.80
2018-07-26T06:44:10.533Z,16.85
2018-07-26T06:45:10.702Z,16.84
2018-07-26T06:46:10.564Z,16.80
2018-07-26T06:47:10.576Z,16.74
2018-07-26T06:48:10.582Z,16.90
2018-07-26T06:49:10.599Z,16.77
2018-07-26T06:50:10.758Z,16.81
2018-07-26T06:51:10.631Z,16.81
2018-07-26T06:52:10.640Z,16.81
2018-07-26T06:53:10.670Z,16.70
2018-07-26T06:54:10.648Z,16.66
2018-07-26T06:55:10.827Z,16.62
2018-07-26T06:56:10.689Z,16.73
2018-07-26T06:57:10.700Z,16.76
2018-07-26T06:58:10.719Z,16.67
2018-07-26T06:59:10.724Z,16.67
2018-07-26T07:00:10.891Z,16.72
2018-07-26T07:01:10.749Z,16.67
2018-07-26T07:02:10.742Z,16.63
2018-07-26T07:03:10.770Z,16.72
2018-07-26T07:04:10.786Z,16.70
2018-07-26T07:05:10.935Z,16.66
2018-07-26T07:06:10.808Z,16.63
2018-07-26T07:07:10.825Z,16.69
2018-07-26T07:08:10.833Z,16.57
2018-07-26T07:09:10.848Z,16.52
2018-07-26T07:10:11.072Z,16.58
2018-07-26T07:11:10.869Z,16.57
2018-07-26T07:12:10.880Z,16.52
2018-07-26T07:13:10.901Z,16.58
2018-07-26T07:14:10.928Z,16.58
2018-07-26T07:15:11.075Z,16.59
2018-07-26T07:16:10.935Z,16.59
2018-07-26T07:17:10.949Z,16.54
2018-07-26T07:18:10.958Z,16.55
2018-07-26T07:19:10.970Z,16.55
2018-07-26T07:20:11.134Z,16.58
2018-07-26T07:21:10.996Z,16.51
2018-07-26T07:22:11.010Z,16.48
2018-07-26T07:23:11.018Z,16.52
2018-07-26T07:24:11.035Z,16.47
2018-07-26T07:25:11.191Z,16.51
2018-07-26T07:26:11.148Z,16.51
2018-07-26T07:27:11.073Z,16.51
2018-07-26T07:28:11.087Z,16.54
2018-07-26T07:29:11.089Z,16.52
2018-07-26T07:30:11.257Z,16.58
2018-07-26T07:31:11.117Z,16.54
2018-07-26T07:32:11.130Z,16.52
2018-07-26T07:33:11.180Z,16.57
2018-07-26T07:34:11.155Z,16.66
2018-07-26T07:35:11.161Z,16.63
2018-07-26T07:36:11.331Z,16.59
2018-07-26T07:37:11.197Z,16.66
2018-07-26T07:38:11.223Z,16.65
2018-07-26T07:39:11.215Z,16.65
2018-07-26T07:40:11.232Z,16.67
2018-07-26T07:41:11.237Z,16.62
2018-07-26T07:42:11.399Z,16.67
2018-07-26T07:43:11.262Z,16.66
2018-07-26T07:44:11.280Z,16.63
2018-07-26T07:45:11.299Z,16.67
2018-07-26T07:46:11.300Z,16.58
2018-07-26T07:47:11.494Z,16.70
2018-07-26T07:48:11.322Z,16.58
2018-07-26T07:49:11.337Z,16.62
2018-07-26T07:50:11.355Z,16.62
2018-07-26T07:51:11.351Z,16.69
2018-07-26T07:52:11.524Z,16.66
2018-07-26T07:53:11.397Z,16.69
2018-07-26T07:54:11.380Z,16.74
2018-07-26T07:55:11.417Z,16.66
2018-07-26T07:56:11.405Z,16.63
2018-07-26T07:57:11.587Z,16.70
2018-07-26T07:58:11.453Z,16.58
2018-07-26T07:59:11.469Z,16.57
2018-07-26T08:00:11.476Z,16.55
2018-07-26T08:01:11.466Z,16.52
2018-07-26T08:02:11.648Z,16.49
2018-07-26T08:03:11.508Z,16.54
2018-07-26T08:04:11.533Z,16.52
2018-07-26T08:05:11.557Z,16.51
2018-07-26T08:06:11.549Z,16.49
2018-07-26T08:07:11.709Z,16.49
2018-07-26T08:08:11.578Z,16.47
2018-07-26T08:09:11.589Z,16.45
2018-07-26T08:10:11.594Z,16.51
2018-07-26T08:11:11.626Z,16.44
2018-07-26T08:12:11.773Z,16.44
2018-07-26T08:13:11.635Z,16.52
2018-07-26T08:14:11.754Z,16.44
2018-07-26T08:15:11.640Z,16.54
2018-07-26T08:16:11.669Z,16.52
2018-07-26T08:17:11.835Z,16.55
2018-07-26T08:18:11.676Z,16.58
2018-07-26T08:19:11.711Z,16.65
2018-07-26T08:20:11.719Z,16.63
2018-07-26T08:21:11.711Z,16.63
2018-07-26T08:22:11.891Z,16.65
2018-07-26T08:23:11.733Z,16.66
2018-07-26T08:24:11.749Z,16.66
2018-07-26T08:25:11.780Z,16.65
2018-07-26T08:26:11.793Z,16.58
2018-07-26T08:27:11.949Z,16.55
2018-07-26T08:28:11.817Z,16.62
2018-07-26T08:29:11.833Z,16.57
2018-07-26T08:30:11.845Z,16.55
2018-07-26T08:31:11.854Z,16.51
2018-07-26T08:32:12.013Z,16.52
2018-07-26T08:33:11.885Z,16.54
2018-07-26T08:34:11.887Z,16.58
2018-07-26T08:35:11.955Z,16.52
2018-07-26T08:36:11.913Z,16.57
2018-07-26T08:37:12.077Z,16.59
2018-07-26T08:38:11.925Z,16.54
2018-07-26T08:39:11.955Z,16.57
2018-07-26T08:40:11.951Z,16.58
2018-07-26T08:41:12.089Z,16.62
2018-07-26T08:42:12.136Z,16.59
2018-07-26T08:43:12.004Z,16.66
2018-07-26T08:44:12.012Z,16.63
2018-07-26T08:45:12.027Z,16.63
2018-07-26T08:46:12.038Z,16.59
2018-07-26T08:47:12.199Z,16.69
2018-07-26T08:48:12.113Z,16.69
2018-07-26T08:49:12.059Z,16.69
2018-07-26T08:50:12.071Z,16.73
2018-07-26T08:51:12.099Z,16.65
2018-07-26T08:52:12.301Z,16.72
2018-07-26T08:53:12.119Z,16.65
2018-07-26T08:54:12.196Z,16.70
2018-07-26T08:55:12.152Z,16.63
2018-07-26T08:56:12.155Z,16.59
2018-07-26T08:57:12.152Z,16.63
2018-07-26T08:58:12.338Z,16.69
2018-07-26T08:59:12.200Z,16.62
2018-07-26T09:00:12.210Z,16.63
2018-07-26T09:01:12.276Z,16.63
2018-07-26T09:02:12.215Z,16.69
2018-07-26T09:03:12.399Z,16.57
2018-07-26T09:04:12.263Z,16.65
2018-07-26T09:05:12.276Z,16.62
2018-07-26T09:06:12.284Z,16.63
2018-07-26T09:07:12.274Z,16.54
2018-07-26T09:08:12.457Z,16.55
2018-07-26T09:09:12.326Z,16.62
2018-07-26T09:10:12.340Z,16.62
2018-07-26T09:11:12.344Z,16.57
2018-07-26T09:12:12.353Z,16.59
2018-07-26T09:13:12.523Z,16.55
2018-07-26T09:14:12.389Z,16.67
2018-07-26T09:15:12.393Z,16.59
2018-07-26T09:16:12.392Z,16.62
2018-07-26T09:17:12.497Z,16.66
2018-07-26T09:18:12.583Z,16.66
2018-07-26T09:19:12.442Z,16.57
2018-07-26T09:20:12.455Z,16.63
2018-07-26T09:21:12.465Z,16.57
2018-07-26T09:22:12.481Z,16.52
2018-07-26T09:23:12.641Z,16.52
2018-07-26T09:24:12.499Z,16.44
2018-07-26T09:25:12.525Z,16.45
2018-07-26T09:26:12.568Z,16.42
2018-07-26T09:27:12.547Z,16.37
2018-07-26T09:28:12.711Z,16.37
2018-07-26T09:29:12.571Z,16.32
2018-07-26T09:30:12.559Z,16.32
2018-07-26T09:31:12.591Z,16.37
2018-07-26T09:32:12.582Z,16.37
2018-07-26T09:33:12.748Z,16.42
2018-07-26T09:34:12.610Z,16.37
2018-07-26T09:35:12.640Z,16.36
2018-07-26T09:36:12.667Z,16.39
2018-07-26T09:37:12.661Z,16.33
2018-07-26T09:38:12.824Z,16.39
2018-07-26T09:39:12.668Z,16.36
2018-07-26T09:40:12.699Z,16.39
2018-07-26T09:41:12.755Z,16.45
2018-07-26T09:42:12.722Z,16.34
2018-07-26T09:43:12.881Z,16.42
2018-07-26T09:44:12.751Z,16.48
2018-07-26T09:45:12.767Z,16.48
2018-07-26T09:46:12.774Z,16.44
2018-07-26T09:47:12.792Z,16.42
2018-07-26T09:48:12.947Z,16.45
2018-07-26T09:49:12.809Z,16.51
2018-07-26T09:50:12.822Z,16.42
2018-07-26T09:51:12.812Z,16.45
2018-07-26T09:52:12.852Z,16.36
2018-07-26T09:53:13.008Z,16.40
2018-07-26T09:54:12.872Z,16.39
2018-07-26T09:55:12.881Z,16.40
2018-07-26T09:56:12.897Z,16.40
2018-07-26T09:57:12.909Z,16.36
2018-07-26T09:58:13.069Z,16.37
2018-07-26T09:59:12.929Z,16.40
2018-07-26T10:00:12.957Z,16.40
2018-07-26T10:01:12.961Z,16.34
2018-07-26T10:02:12.965Z,16.36
2018-07-26T10:03:13.125Z,16.34
2018-07-26T10:04:12.993Z,16.33
2018-07-26T10:05:13.003Z,16.36
2018-07-26T10:06:13.014Z,16.34
2018-07-26T10:07:13.005Z,16.29
2018-07-26T10:08:13.191Z,16.32
2018-07-26T10:09:13.050Z,16.30
2018-07-26T10:10:13.066Z,16.37
2018-07-26T10:11:13.074Z,16.36
2018-07-26T10:12:13.086Z,16.33
2018-07-26T10:13:13.247Z,16.36
2018-07-26T10:14:13.110Z,16.36
2018-07-26T10:15:13.124Z,16.33
2018-07-26T10:16:13.134Z,16.39
2018-07-26T10:17:13.147Z,16.44
2018-07-26T10:18:13.158Z,16.42
2018-07-26T10:19:13.304Z,16.37
2018-07-26T10:20:13.233Z,16.37
2018-07-26T10:21:13.171Z,16.37
2018-07-26T10:22:13.204Z,16.36
2018-07-26T10:23:13.215Z,16.30
2018-07-26T10:24:13.386Z,16.32
2018-07-26T10:25:13.251Z,16.27
2018-07-26T10:26:13.255Z,16.26
2018-07-26T10:27:13.269Z,16.33
2018-07-26T10:28:13.278Z,16.30
2018-07-26T10:29:13.445Z,16.37
2018-07-26T10:30:13.312Z,16.42
2018-07-26T10:31:13.318Z,16.36
2018-07-26T10:32:13.328Z,16.37
2018-07-26T10:33:13.351Z,16.36
2018-07-26T10:34:13.504Z,16.39
2018-07-26T10:35:13.372Z,16.37
2018-07-26T10:36:13.383Z,16.37
2018-07-26T10:37:13.393Z,16.42
2018-07-26T10:38:13.400Z,16.44
2018-07-26T10:39:13.570Z,16.45
2018-07-26T10:40:13.425Z,16.39
2018-07-26T10:41:13.446Z,16.40
2018-07-26T10:42:13.436Z,16.39
2018-07-26T10:43:13.462Z,16.42
2018-07-26T10:44:13.605Z,16.52
2018-07-26T10:45:13.487Z,16.49
2018-07-26T10:46:13.497Z,16.55
2018-07-26T10:47:13.513Z,16.52
2018-07-26T10:48:13.515Z,16.66
2018-07-26T10:49:13.675Z,16.65
2018-07-26T10:50:13.552Z,16.66
2018-07-26T10:51:13.575Z,16.67
2018-07-26T10:52:13.582Z,16.76
2018-07-26T10:53:13.593Z,16.66
2018-07-26T10:54:13.746Z,16.59
2018-07-26T10:55:13.619Z,16.59
2018-07-26T10:56:13.625Z,16.66
2018-07-26T10:57:13.640Z,16.62
2018-07-26T10:58:13.650Z,16.66
2018-07-26T10:59:13.795Z,16.72
2018-07-26T11:00:13.735Z,16.72
2018-07-26T11:01:13.688Z,16.65
2018-07-26T11:02:13.708Z,16.73
2018-07-26T11:03:13.716Z,16.77
2018-07-26T11:04:13.863Z,16.72
2018-07-26T11:05:13.742Z,16.69
2018-07-26T11:06:13.735Z,16.81
2018-07-26T11:07:13.779Z,16.73
2018-07-26T11:08:13.782Z,16.76
2018-07-26T11:09:13.941Z,16.77
2018-07-26T11:10:13.802Z,16.70
2018-07-26T11:11:13.819Z,16.74
2018-07-26T11:12:13.823Z,16.72
2018-07-26T11:13:13.844Z,16.81
2018-07-26T11:14:13.990Z,16.82
2018-07-26T11:15:13.857Z,16.80
2018-07-26T11:16:13.886Z,16.85
2018-07-26T11:17:13.894Z,16.97
2018-07-26T11:18:13.905Z,16.94
2018-07-26T11:19:14.627Z,17.12
2018-07-26T11:20:13.931Z,17.06
2018-07-26T11:21:13.945Z,17.12
2018-07-26T11:22:13.938Z,17.18
2018-07-26T11:23:13.969Z,17.12
2018-07-26T11:24:14.277Z,17.18
2018-07-26T11:25:13.996Z,17.31
2018-07-26T11:26:14.013Z,17.22
2018-07-26T11:27:14.012Z,17.22
2018-07-26T11:28:14.034Z,17.18
2018-07-26T11:29:14.055Z,17.22
2018-07-26T11:30:14.189Z,17.22
2018-07-26T11:31:14.079Z,17.12
2018-07-26T11:32:14.114Z,17.22
2018-07-26T11:33:14.104Z,17.25
2018-07-26T11:34:14.121Z,17.20
2018-07-26T11:35:14.126Z,17.25
2018-07-26T11:36:14.295Z,17.35
2018-07-26T11:37:14.155Z,17.30
2018-07-26T11:38:14.169Z,17.36
2018-07-26T11:39:14.193Z,17.32
2018-07-26T11:40:14.177Z,17.31
2018-07-26T11:41:14.361Z,17.43
2018-07-26T11:42:14.221Z,17.43
2018-07-26T11:43:14.213Z,17.47
2018-07-26T11:44:14.251Z,17.45
2018-07-26T11:45:14.263Z,17.42
2018-07-26T11:46:14.424Z,17.46
2018-07-26T11:47:14.271Z,17.52
2018-07-26T11:48:14.314Z,17.46
2018-07-26T11:49:14.314Z,17.45
2018-07-26T11:50:14.393Z,17.45
2018-07-26T11:51:14.497Z,17.43
2018-07-26T11:52:14.360Z,17.54
2018-07-26T11:53:14.372Z,17.50
2018-07-26T11:54:14.386Z,17.60
2018-07-26T11:55:14.398Z,17.62
2018-07-26T11:56:14.559Z,17.66
2018-07-26T11:57:14.434Z,17.60
2018-07-26T11:58:14.436Z,17.62
2018-07-26T11:59:14.455Z,17.68
2018-07-26T12:00:14.471Z,17.55
2018-07-26T12:01:14.633Z,17.54
2018-07-26T12:02:14.493Z,17.50
2018-07-26T12:03:14.515Z,17.57
2018-07-26T12:04:14.531Z,17.65
2018-07-26T12:05:14.522Z,17.65
2018-07-26T12:06:14.702Z,17.62
2018-07-26T12:07:14.567Z,17.80
2018-07-26T12:08:14.618Z,17.76
2018-07-26T12:09:14.596Z,17.80
2018-07-26T12:10:14.604Z,17.81
2018-07-26T12:11:14.773Z,17.87
2018-07-26T12:12:14.640Z,17.92
2018-07-26T12:13:14.652Z,17.96
2018-07-26T12:14:14.701Z,17.99
2018-07-26T12:15:14.679Z,17.96
2018-07-26T12:16:14.847Z,18.13
2018-07-26T12:17:14.706Z,18.24
2018-07-26T12:18:14.724Z,18.27
2018-07-26T12:19:14.738Z,18.36
2018-07-26T12:20:14.746Z,18.38
2018-07-26T12:21:14.919Z,18.49
2018-07-26T12:22:14.787Z,18.53
2018-07-26T12:23:14.803Z,18.69
2018-07-26T12:24:14.815Z,18.71
2018-07-26T12:25:14.807Z,18.81
2018-07-26T12:26:14.996Z,18.91
2018-07-26T12:27:14.854Z,19.02
2018-07-26T12:28:14.875Z,19.10
2018-07-26T12:29:14.891Z,19.35
2018-07-26T12:30:14.904Z,19.60
2018-07-26T12:31:15.054Z,19.72
2018-07-26T12:32:14.931Z,19.93
2018-07-26T12:33:14.928Z,20.04
2018-07-26T12:34:14.972Z,20.11
2018-07-26T12:35:14.988Z,20.23
2018-07-26T12:36:15.158Z,20.16
2018-07-26T12:37:15.027Z,20.34
2018-07-26T12:38:15.038Z,20.34
2018-07-26T12:39:15.051Z,20.35
2018-07-26T12:40:15.071Z,20.48
2018-07-26T12:41:15.225Z,20.48
2018-07-26T12:42:15.085Z,20.30
2018-07-26T12:43:15.123Z,20.51
2018-07-26T12:44:15.120Z,20.51
2018-07-26T12:45:15.139Z,20.74
2018-07-26T12:46:15.168Z,20.90
2018-07-26T12:47:15.340Z,20.96
2018-07-26T12:48:15.206Z,21.00
2018-07-26T12:49:15.243Z,21.12
2018-07-26T12:50:15.249Z,21.15
2018-07-26T12:51:15.261Z,21.22
2018-07-26T12:52:15.382Z,21.18